»·PEaware :: N23ND KLNK-KBIL

N23ND :: KLNK-KBIL

FLIGHT INFORMATION

Flight Status: Arrived
Operator: Privately registered:
United States
More flights under this callsign
Pilot: Alex K. (14822)
Aircraft: Unknown
(C90)
More flights by this aircraft type
Origin: KLNK Lincoln Mun
United States
Destination: KBIL Billings Logan Intl
United States
More flights between these airports :: More routes between these airports
Route: +GCC130016
File this flight plan on PilotEdge
Remarks: oofda der guy
Altitude:
(Current/Filed)
16,000ft
Speed:
(Current/Filed)
250kts
Departed: 29-Sep-19 12:26 PM
Arrived: 29-Sep-19 02:18 PM
Distance/Time
Traveled:
593nm/1:52
Distance/Time
To Go:
Arrived

Flight Plot

Page will automatically refresh every two minutes.

Flight plan parsing failed; only flown route is shown


Map Options




Map Legend


Flown Route
Filed Route
Departure Airport
Arrival Airport
Navaid (VOR, NDB)
Fix

Horizontal Profiles

Position Reports

Time Latitude Longitude Heading Altitude Ground
Speed
29-Sep-19 12:24 41.917895 -99.246219 288 15815ft 241kts
29-Sep-19 12:25 41.949804 -99.323916 288 16015ft 237kts
29-Sep-19 12:26 41.981997 -99.402602 288 16017ft 241kts
29-Sep-19 12:27 42.014538 -99.482224 288 16016ft 243kts
29-Sep-19 12:28 42.047183 -99.562319 289 16017ft 244kts
29-Sep-19 12:29 42.079933 -99.642908 289 16012ft 245kts
29-Sep-19 12:30 42.112918 -99.724291 288 15992ft 245kts
29-Sep-19 12:31 42.145433 -99.804728 288 15990ft 243kts
29-Sep-19 12:32 42.177761 -99.884966 288 15983ft 243kts
29-Sep-19 12:33 42.210129 -99.965519 288 15983ft 243kts
29-Sep-19 12:34 42.242390 -100.046095 288 15979ft 243kts
29-Sep-19 12:35 42.274563 -100.126533 288 15978ft 243kts
29-Sep-19 12:36 42.306746 -100.207276 288 15979ft 243kts
29-Sep-19 12:37 42.338799 -100.287929 288 15981ft 243kts
29-Sep-19 12:38 42.370951 -100.369066 288 15976ft 244kts
29-Sep-19 12:39 42.402991 -100.450147 288 15974ft 244kts
29-Sep-19 12:40 42.435016 -100.531384 288 15972ft 244kts
29-Sep-19 12:41 42.467057 -100.613184 288 15958ft 245kts
29-Sep-19 12:42 42.498772 -100.695241 287 16004ft 244kts
29-Sep-19 12:43 42.530356 -100.777382 287 16004ft 245kts
29-Sep-19 12:44 42.562078 -100.860034 287 16004ft 246kts
29-Sep-19 12:45 42.593783 -100.943023 288 16003ft 246kts
29-Sep-19 12:46 42.625464 -101.026048 288 16002ft 246kts
29-Sep-19 12:47 42.657107 -101.109259 288 16002ft 247kts
29-Sep-19 12:48 42.688590 -101.192348 288 16002ft 247kts
29-Sep-19 12:49 42.720069 -101.275591 288 16001ft 247kts
29-Sep-19 12:50 42.751580 -101.359176 288 15996ft 249kts
29-Sep-19 12:51 42.783493 -101.444119 288 15994ft 252kts
29-Sep-19 12:52 42.815273 -101.529036 288 15980ft 252kts
29-Sep-19 12:53 42.847197 -101.614350 288 15997ft 252kts
29-Sep-19 12:54 42.879113 -101.700082 288 15982ft 252kts
29-Sep-19 12:55 42.910865 -101.785565 288 15979ft 252kts
29-Sep-19 12:56 42.942654 -101.871322 288 15979ft 254kts
29-Sep-19 12:57 42.974457 -101.957667 287 15980ft 254kts
29-Sep-19 12:58 43.006131 -102.043722 287 15976ft 254kts
29-Sep-19 12:59 43.037824 -102.130125 287 15961ft 255kts
29-Sep-19 13:01 43.069482 -102.216671 287 15972ft 255kts
29-Sep-19 13:02 43.101187 -102.303632 288 15968ft 255kts
29-Sep-19 13:03 43.132647 -102.390308 288 15969ft 252kts
29-Sep-19 13:04 43.163902 -102.476486 287 15959ft 252kts
29-Sep-19 13:05 43.195074 -102.562983 287 15964ft 252kts
29-Sep-19 13:06 43.226070 -102.649058 287 15954ft 251kts
29-Sep-19 13:07 43.256976 -102.735159 287 15961ft 250kts
29-Sep-19 13:08 43.287760 -102.821280 286 15947ft 252kts
29-Sep-19 13:09 43.318619 -102.907750 287 15977ft 250kts
29-Sep-19 13:10 43.349357 -102.994079 286 15963ft 251kts
29-Sep-19 13:11 43.379894 -103.080259 286 15989ft 248kts
29-Sep-19 13:12 43.410145 -103.165849 286 16009ft 248kts
29-Sep-19 13:13 43.440292 -103.251491 286 16021ft 248kts
29-Sep-19 13:14 43.470478 -103.337429 286 16031ft 248kts
29-Sep-19 13:15 43.500500 -103.423233 286 16041ft 249kts
29-Sep-19 13:16 43.530562 -103.509361 286 16052ft 249kts
29-Sep-19 13:17 43.560603 -103.595665 285 16059ft 249kts
29-Sep-19 13:18 43.590650 -103.682406 285 16066ft 250kts
29-Sep-19 13:18 43.615585 -103.754537 285 16065ft 250kts
29-Sep-19 13:20 43.650714 -103.856409 284 16061ft 251kts
29-Sep-19 13:21 43.680762 -103.943954 284 16053ft 252kts
29-Sep-19 13:21 43.705750 -104.016882 284 16044ft 252kts
29-Sep-19 13:23 43.740649 -104.119165 284 16034ft 252kts
29-Sep-19 13:24 43.770463 -104.206828 284 16026ft 252kts
29-Sep-19 13:24 43.795305 -104.280090 284 16023ft 251kts
29-Sep-19 13:25 43.824922 -104.367690 284 16021ft 251kts
29-Sep-19 13:26 43.854640 -104.455861 284 16024ft 251kts
29-Sep-19 13:27 43.884184 -104.543773 284 16024ft 251kts
29-Sep-19 13:28 43.913541 -104.631509 284 16020ft 250kts
29-Sep-19 13:29 43.942851 -104.719260 283 16022ft 250kts
29-Sep-19 13:30 43.971971 -104.806786 283 16021ft 249kts
29-Sep-19 13:31 44.001006 -104.894383 282 16020ft 249kts
29-Sep-19 13:32 44.029935 -104.981949 282 16018ft 250kts
29-Sep-19 13:33 44.058845 -105.069775 282 16015ft 249kts
29-Sep-19 13:34 44.087679 -105.157579 282 16012ft 249kts
29-Sep-19 13:35 44.116492 -105.245591 281 15995ft 248kts
29-Sep-19 13:36 44.146160 -105.332120 292 15994ft 256kts
29-Sep-19 13:37 44.189290 -105.411708 295 15988ft 258kts
29-Sep-19 13:38 44.232755 -105.491455 295 15987ft 258kts
29-Sep-19 13:39 44.276085 -105.571251 294 15986ft 258kts
29-Sep-19 13:40 44.319560 -105.651528 294 15985ft 259kts
29-Sep-19 13:41 44.363044 -105.732005 294 15986ft 260kts
29-Sep-19 13:42 44.406586 -105.812795 293 15995ft 261kts
29-Sep-19 13:43 44.450062 -105.893623 294 16006ft 260kts
29-Sep-19 13:44 44.493564 -105.974896 294 16023ft 260kts
29-Sep-19 13:45 44.536922 -106.056145 294 16029ft 261kts
29-Sep-19 13:46 44.580455 -106.137794 294 16052ft 261kts
29-Sep-19 13:47 44.623837 -106.219524 294 16052ft 261kts
29-Sep-19 13:48 44.667394 -106.301771 294 16044ft 264kts
29-Sep-19 13:49 44.711475 -106.385191 295 15948ft 265kts
29-Sep-19 13:50 44.755233 -106.468203 295 15961ft 262kts
29-Sep-19 13:51 44.798581 -106.550747 295 15969ft 261kts
29-Sep-19 13:52 44.841545 -106.632767 295 15977ft 261kts
29-Sep-19 13:53 44.884734 -106.715512 295 15981ft 261kts
29-Sep-19 13:54 44.927800 -106.798238 295 15984ft 261kts
29-Sep-19 13:55 44.970833 -106.881079 295 15984ft 262kts
29-Sep-19 13:56 45.013896 -106.964290 295 15984ft 262kts
29-Sep-19 13:57 45.057006 -107.047849 296 15988ft 263kts
29-Sep-19 13:58 45.100002 -107.131325 296 15988ft 263kts
29-Sep-19 13:59 45.143056 -107.215229 296 15977ft 261kts
29-Sep-19 14:00 45.185928 -107.299015 296 15968ft 261kts
29-Sep-19 14:01 45.228528 -107.382549 296 15963ft 261kts
29-Sep-19 14:02 45.271308 -107.466608 296 15966ft 261kts
29-Sep-19 14:03 45.313753 -107.550315 296 15969ft 261kts
29-Sep-19 14:04 45.356375 -107.634599 297 15972ft 261kts
29-Sep-19 14:05 45.399357 -107.720049 297 15521ft 277kts
29-Sep-19 14:06 45.445348 -107.811435 298 14231ft 281kts
29-Sep-19 14:07 45.490244 -107.900979 298 12848ft 273kts
29-Sep-19 14:08 45.533884 -107.988429 298 11640ft 267kts
29-Sep-19 14:09 45.576720 -108.074700 302 10441ft 264kts
29-Sep-19 14:10 45.618312 -108.158624 302 9231ft 252kts
29-Sep-19 14:11 45.664302 -108.231978 314 8029ft 244kts
29-Sep-19 14:12 45.710686 -108.301344 314 6832ft 239kts
29-Sep-19 14:13 45.751704 -108.362862 314 5591ft 191kts
29-Sep-19 14:14 45.774368 -108.417632 294 5103ft 135kts
29-Sep-19 14:15 45.786896 -108.461799 293 4483ft 118kts
29-Sep-19 14:16 45.797800 -108.501165 294 3913ft 105kts
29-Sep-19 14:17 45.805076 -108.527382 290 3654ft 20kts
29-Sep-19 14:18 45.803050 -108.529385 157 3654ft 10kts
29-Sep-19 14:19 45.802834 -108.529286 284 3654ft 0kts
29-Sep-19 14:20 45.802834 -108.529286 284 3654ft 0kts
29-Sep-19 14:21 45.802834 -108.529286 284 3654ft 0kts

Navigation Log

Ident Type
Flight plan parsing failed, navigation log unavailable